sensor_id;sensor_type;location;lat;lon;timestamp;P1;durP1;ratioP1;P2;durP2;ratioP2
45354;SDS011;31091;48.758;9.150;2023-03-01T00:02:12;19.97;;;11.43;;
45354;SDS011;31091;48.758;9.150;2023-03-01T00:04:37;18.63;;;11.82;;
45354;SDS011;31091;48.758;9.150;2023-03-01T00:07:02;23.27;;;14.17;;
45354;SDS011;31091;48.758;9.150;2023-03-01T00:09:27;24.03;;;11.80;;
45354;SDS011;31091;48.758;9.150;2023-03-01T00:11:53;24.00;;;12.40;;
45354;SDS011;31091;48.758;9.150;2023-03-01T00:14:18;21.20;;;11.63;;
45354;SDS011;31091;48.758;9.150;2023-03-01T00:16:44;20.08;;;10.68;;
45354;SDS011;31091;48.758;9.150;2023-03-01T00:19:12;25.02;;;12.55;;
45354;SDS011;31091;48.758;9.150;2023-03-01T00:21:37;18.67;;;11.15;;
45354;SDS011;31091;48.758;9.150;2023-03-01T00:24:02;23.08;;;10.80;;
45354;SDS011;31091;48.758;9.150;2023-03-01T00:26:28;22.00;;;12.32;;
45354;SDS011;31091;48.758;9.150;2023-03-01T00:28:53;22.77;;;12.32;;
45354;SDS011;31091;48.758;9.150;2023-03-01T00:31:23;22.27;;;11.25;;
45354;SDS011;31091;48.758;9.150;2023-03-01T00:33:51;21.45;;;11.40;;
45354;SDS011;31091;48.758;9.150;2023-03-01T00:36:17;21.63;;;11.52;;
45354;SDS011;31091;48.758;9.150;2023-03-01T00:38:43;22.50;;;12.27;;
45354;SDS011;31091;48.758;9.150;2023-03-01T00:41:12;21.30;;;11.32;;
45354;SDS011;31091;48.758;9.150;2023-03-01T00:43:38;17.90;;;11.15;;
45354;SDS011;31091;48.758;9.150;2023-03-01T00:46:04;20.52;;;11.95;;
45354;SDS011;31091;48.758;9.150;2023-03-01T00:48:29;19.80;;;11.85;;
45354;SDS011;31091;48.758;9.150;2023-03-01T00:50:55;17.95;;;10.23;;
45354;SDS011;31091;48.758;9.150;2023-03-01T00:53:20;24.47;;;11.57;;
45354;SDS011;31091;48.758;9.150;2023-03-01T00:55:45;17.30;;;10.70;;
45354;SDS011;31091;48.758;9.150;2023-03-01T00:58:10;19.45;;;11.35;;
45354;SDS011;31091;48.758;9.150;2023-03-01T01:00:35;22.83;;;12.23;;
45354;SDS011;31091;48.758;9.150;2023-03-01T01:03:01;18.48;;;10.45;;
45354;SDS011;31091;48.758;9.150;2023-03-01T01:05:26;20.23;;;10.40;;
45354;SDS011;31091;48.758;9.150;2023-03-01T01:07:51;21.23;;;10.90;;
45354;SDS011;31091;48.758;9.150;2023-03-01T01:10:16;21.23;;;10.23;;
45354;SDS011;31091;48.758;9.150;2023-03-01T01:12:42;19.67;;;10.70;;
45354;SDS011;31091;48.758;9.150;2023-03-01T01:15:07;20.80;;;11.75;;
45354;SDS011;31091;48.758;9.150;2023-03-01T01:17:33;22.08;;;11.30;;
45354;SDS011;31091;48.758;9.150;2023-03-01T01:19:58;19.87;;;11.17;;
45354;SDS011;31091;48.758;9.150;2023-03-01T01:22:23;16.10;;;10.37;;
45354;SDS011;31091;48.758;9.150;2023-03-01T01:24:48;20.70;;;12.67;;
45354;SDS011;31091;48.758;9.150;2023-03-01T01:27:13;22.77;;;10.97;;
45354;SDS011;31091;48.758;9.150;2023-03-01T01:29:39;20.57;;;11.00;;
45354;SDS011;31091;48.758;9.150;2023-03-01T01:32:04;20.63;;;11.03;;
45354;SDS011;31091;48.758;9.150;2023-03-01T01:34:29;20.20;;;11.65;;
45354;SDS011;31091;48.758;9.150;2023-03-01T01:36:54;17.60;;;10.80;;
45354;SDS011;31091;48.758;9.150;2023-03-01T01:39:20;20.92;;;9.93;;
45354;SDS011;31091;48.758;9.150;2023-03-01T01:41:46;19.80;;;10.45;;
45354;SDS011;31091;48.758;9.150;2023-03-01T01:44:13;19.65;;;11.13;;
45354;SDS011;31091;48.758;9.150;2023-03-01T01:46:40;20.15;;;11.70;;
45354;SDS011;31091;48.758;9.150;2023-03-01T01:51:39;22.83;;;11.27;;
45354;SDS011;31091;48.758;9.150;2023-03-01T01:54:09;18.90;;;11.43;;
45354;SDS011;31091;48.758;9.150;2023-03-01T01:56:35;21.00;;;10.50;;
45354;SDS011;31091;48.758;9.150;2023-03-01T01:59:01;16.98;;;10.13;;
45354;SDS011;31091;48.758;9.150;2023-03-01T02:01:27;19.92;;;11.43;;
45354;SDS011;31091;48.758;9.150;2023-03-01T02:03:52;22.38;;;11.77;;
45354;SDS011;31091;48.758;9.150;2023-03-01T02:08:44;17.98;;;10.73;;
45354;SDS011;31091;48.758;9.150;2023-03-01T02:11:10;18.95;;;11.40;;
45354;SDS011;31091;48.758;9.150;2023-03-01T02:13:36;21.88;;;11.98;;
45354;SDS011;31091;48.758;9.150;2023-03-01T02:16:08;19.45;;;10.85;;
45354;SDS011;31091;48.758;9.150;2023-03-01T02:18:33;20.40;;;10.38;;
45354;SDS011;31091;48.758;9.150;2023-03-01T02:23:33;18.90;;;10.55;;
45354;SDS011;31091;48.758;9.150;2023-03-01T02:26:03;20.20;;;11.60;;
45354;SDS011;31091;48.758;9.150;2023-03-01T02:28:32;17.98;;;10.10;;
45354;SDS011;31091;48.758;9.150;2023-03-01T02:30:58;23.50;;;13.00;;
45354;SDS011;31091;48.758;9.150;2023-03-01T02:33:42;18.63;;;10.43;;
45354;SDS011;31091;48.758;9.150;2023-03-01T02:36:18;20.02;;;11.07;;
45354;SDS011;31091;48.758;9.150;2023-03-01T02:38:44;18.48;;;11.23;;
45354;SDS011;31091;48.758;9.150;2023-03-01T02:41:10;19.08;;;11.35;;
45354;SDS011;31091;48.758;9.150;2023-03-01T02:43:36;22.10;;;11.55;;
45354;SDS011;31091;48.758;9.150;2023-03-01T02:46:03;19.38;;;11.93;;
45354;SDS011;31091;48.758;9.150;2023-03-01T02:48:38;19.83;;;11.95;;
45354;SDS011;31091;48.758;9.150;2023-03-01T02:51:05;21.83;;;12.30;;
45354;SDS011;31091;48.758;9.150;2023-03-01T02:53:45;21.38;;;11.80;;
45354;SDS011;31091;48.758;9.150;2023-03-01T02:56:14;24.75;;;11.63;;
45354;SDS011;31091;48.758;9.150;2023-03-01T02:58:41;21.48;;;12.63;;
45354;SDS011;31091;48.758;9.150;2023-03-01T03:01:13;19.63;;;11.32;;
45354;SDS011;31091;48.758;9.150;2023-03-01T03:03:40;23.75;;;11.23;;
45354;SDS011;31091;48.758;9.150;2023-03-01T03:06:05;21.02;;;10.77;;
45354;SDS011;31091;48.758;9.150;2023-03-01T03:08:30;21.53;;;12.23;;
45354;SDS011;31091;48.758;9.150;2023-03-01T03:10:56;19.40;;;12.07;;
45354;SDS011;31091;48.758;9.150;2023-03-01T03:13:21;20.27;;;11.87;;
45354;SDS011;31091;48.758;9.150;2023-03-01T03:15:47;19.30;;;11.88;;
45354;SDS011;31091;48.758;9.150;2023-03-01T03:18:14;20.73;;;11.32;;
45354;SDS011;31091;48.758;9.150;2023-03-01T03:20:40;22.42;;;12.25;;
45354;SDS011;31091;48.758;9.150;2023-03-01T03:23:06;22.45;;;11.73;;
45354;SDS011;31091;48.758;9.150;2023-03-01T03:25:32;22.13;;;12.00;;
45354;SDS011;31091;48.758;9.150;2023-03-01T03:27:57;23.30;;;11.98;;
45354;SDS011;31091;48.758;9.150;2023-03-01T03:30:28;22.13;;;11.38;;
45354;SDS011;31091;48.758;9.150;2023-03-01T03:32:53;19.70;;;12.50;;
45354;SDS011;31091;48.758;9.150;2023-03-01T03:35:22;21.42;;;12.13;;
45354;SDS011;31091;48.758;9.150;2023-03-01T03:37:49;20.95;;;12.45;;
45354;SDS011;31091;48.758;9.150;2023-03-01T03:40:26;24.65;;;13.00;;
45354;SDS011;31091;48.758;9.150;2023-03-01T03:42:52;21.92;;;11.93;;
45354;SDS011;31091;48.758;9.150;2023-03-01T03:45:17;20.85;;;12.30;;
45354;SDS011;31091;48.758;9.150;2023-03-01T03:47:43;23.05;;;12.05;;
45354;SDS011;31091;48.758;9.150;2023-03-01T03:50:09;20.98;;;11.90;;
45354;SDS011;31091;48.758;9.150;2023-03-01T03:52:34;20.00;;;11.90;;
45354;SDS011;31091;48.758;9.150;2023-03-01T03:54:59;18.47;;;10.87;;
45354;SDS011;31091;48.758;9.150;2023-03-01T03:57:25;20.17;;;12.00;;
45354;SDS011;31091;48.758;9.150;2023-03-01T03:59:50;23.17;;;12.53;;
45354;SDS011;31091;48.758;9.150;2023-03-01T04:02:15;23.90;;;12.07;;
45354;SDS011;31091;48.758;9.150;2023-03-01T04:04:46;24.38;;;13.45;;
45354;SDS011;31091;48.758;9.150;2023-03-01T04:07:14;23.45;;;13.77;;
45354;SDS011;31091;48.758;9.150;2023-03-01T04:09:39;18.58;;;11.57;;
45354;SDS011;31091;48.758;9.150;2023-03-01T04:12:06;21.63;;;12.48;;
45354;SDS011;31091;48.758;9.150;2023-03-01T04:14:31;22.88;;;12.23;;
45354;SDS011;31091;48.758;9.150;2023-03-01T04:16:58;22.27;;;12.50;;
45354;SDS011;31091;48.758;9.150;2023-03-01T04:19:23;20.57;;;13.07;;
45354;SDS011;31091;48.758;9.150;2023-03-01T04:21:48;25.20;;;13.00;;
45354;SDS011;31091;48.758;9.150;2023-03-01T04:24:13;22.73;;;12.13;;
45354;SDS011;31091;48.758;9.150;2023-03-01T04:26:39;21.73;;;11.63;;
45354;SDS011;31091;48.758;9.150;2023-03-01T04:29:04;23.27;;;12.52;;
45354;SDS011;31091;48.758;9.150;2023-03-01T04:31:29;22.20;;;12.68;;
45354;SDS011;31091;48.758;9.150;2023-03-01T04:33:55;19.87;;;12.87;;
45354;SDS011;31091;48.758;9.150;2023-03-01T04:36:21;22.15;;;13.32;;
45354;SDS011;31091;48.758;9.150;2023-03-01T04:38:47;24.52;;;13.65;;
45354;SDS011;31091;48.758;9.150;2023-03-01T04:41:12;22.53;;;12.93;;
45354;SDS011;31091;48.758;9.150;2023-03-01T04:43:38;25.55;;;13.52;;
45354;SDS011;31091;48.758;9.150;2023-03-01T04:46:04;23.00;;;12.83;;
45354;SDS011;31091;48.758;9.150;2023-03-01T04:48:31;21.70;;;12.85;;
45354;SDS011;31091;48.758;9.150;2023-03-01T04:50:56;21.00;;;12.75;;
45354;SDS011;31091;48.758;9.150;2023-03-01T04:53:23;22.05;;;11.85;;
45354;SDS011;31091;48.758;9.150;2023-03-01T04:55:49;20.85;;;11.73;;
45354;SDS011;31091;48.758;9.150;2023-03-01T04:58:15;22.27;;;13.35;;
45354;SDS011;31091;48.758;9.150;2023-03-01T05:00:40;23.27;;;12.80;;
45354;SDS011;31091;48.758;9.150;2023-03-01T05:03:05;20.73;;;13.53;;
45354;SDS011;31091;48.758;9.150;2023-03-01T05:05:31;23.77;;;13.73;;
45354;SDS011;31091;48.758;9.150;2023-03-01T05:07:58;23.27;;;12.55;;
45354;SDS011;31091;48.758;9.150;2023-03-01T05:10:24;22.23;;;13.85;;
45354;SDS011;31091;48.758;9.150;2023-03-01T05:12:50;25.02;;;13.68;;
45354;SDS011;31091;48.758;9.150;2023-03-01T05:15:17;19.58;;;12.38;;
45354;SDS011;31091;48.758;9.150;2023-03-01T05:17:42;25.98;;;15.00;;
45354;SDS011;31091;48.758;9.150;2023-03-01T05:20:08;21.67;;;12.63;;
45354;SDS011;31091;48.758;9.150;2023-03-01T05:22:34;26.08;;;13.98;;
45354;SDS011;31091;48.758;9.150;2023-03-01T05:24:59;22.73;;;12.77;;
45354;SDS011;31091;48.758;9.150;2023-03-01T05:27:24;25.73;;;14.83;;
45354;SDS011;31091;48.758;9.150;2023-03-01T05:29:49;27.45;;;12.85;;
45354;SDS011;31091;48.758;9.150;2023-03-01T05:32:15;23.90;;;13.60;;
45354;SDS011;31091;48.758;9.150;2023-03-01T05:34:40;26.17;;;13.93;;
45354;SDS011;31091;48.758;9.150;2023-03-01T05:37:06;24.15;;;15.05;;
45354;SDS011;31091;48.758;9.150;2023-03-01T05:39:32;21.83;;;12.77;;
45354;SDS011;31091;48.758;9.150;2023-03-01T05:41:58;24.33;;;13.90;;
45354;SDS011;31091;48.758;9.150;2023-03-01T05:44:24;23.67;;;13.68;;
45354;SDS011;31091;48.758;9.150;2023-03-01T05:46:50;24.35;;;14.95;;
45354;SDS011;31091;48.758;9.150;2023-03-01T05:49:15;21.42;;;12.40;;
45354;SDS011;31091;48.758;9.150;2023-03-01T05:51:41;21.17;;;12.43;;
45354;SDS011;31091;48.758;9.150;2023-03-01T05:54:07;22.05;;;13.68;;
45354;SDS011;31091;48.758;9.150;2023-03-01T05:56:33;21.58;;;13.45;;
45354;SDS011;31091;48.758;9.150;2023-03-01T05:58:59;22.67;;;13.45;;
45354;SDS011;31091;48.758;9.150;2023-03-01T06:01:24;23.33;;;13.63;;
45354;SDS011;31091;48.758;9.150;2023-03-01T06:03:50;24.13;;;14.23;;
45354;SDS011;31091;48.758;9.150;2023-03-01T06:06:15;24.80;;;14.65;;
45354;SDS011;31091;48.758;9.150;2023-03-01T06:08:40;22.07;;;12.50;;
45354;SDS011;31091;48.758;9.150;2023-03-01T06:11:05;23.50;;;13.80;;
45354;SDS011;31091;48.758;9.150;2023-03-01T06:13:32;28.02;;;14.80;;
45354;SDS011;31091;48.758;9.150;2023-03-01T06:15:57;25.73;;;13.48;;
45354;SDS011;31091;48.758;9.150;2023-03-01T06:18:22;23.73;;;13.37;;
45354;SDS011;31091;48.758;9.150;2023-03-01T06:20:54;22.87;;;12.97;;
45354;SDS011;31091;48.758;9.150;2023-03-01T06:23:20;24.00;;;13.02;;
45354;SDS011;31091;48.758;9.150;2023-03-01T06:25:45;26.35;;;15.00;;
45354;SDS011;31091;48.758;9.150;2023-03-01T06:28:10;22.60;;;12.95;;
45354;SDS011;31091;48.758;9.150;2023-03-01T06:30:35;24.63;;;13.73;;
45354;SDS011;31091;48.758;9.150;2023-03-01T06:33:01;26.30;;;13.38;;
45354;SDS011;31091;48.758;9.150;2023-03-01T06:35:28;28.38;;;13.75;;
45354;SDS011;31091;48.758;9.150;2023-03-01T06:37:55;27.88;;;13.98;;
45354;SDS011;31091;48.758;9.150;2023-03-01T06:40:20;24.05;;;13.25;;
45354;SDS011;31091;48.758;9.150;2023-03-01T06:42:47;23.02;;;14.55;;
45354;SDS011;31091;48.758;9.150;2023-03-01T06:45:14;27.13;;;15.52;;
45354;SDS011;31091;48.758;9.150;2023-03-01T06:47:39;22.73;;;13.63;;
45354;SDS011;31091;48.758;9.150;2023-03-01T06:50:05;23.52;;;13.60;;
45354;SDS011;31091;48.758;9.150;2023-03-01T06:52:30;26.10;;;13.32;;
45354;SDS011;31091;48.758;9.150;2023-03-01T06:54:55;23.02;;;13.30;;
45354;SDS011;31091;48.758;9.150;2023-03-01T06:57:21;23.20;;;15.33;;
45354;SDS011;31091;48.758;9.150;2023-03-01T06:59:47;29.80;;;15.90;;
45354;SDS011;31091;48.758;9.150;2023-03-01T07:02:12;24.45;;;13.27;;
45354;SDS011;31091;48.758;9.150;2023-03-01T07:04:38;26.80;;;14.30;;
45354;SDS011;31091;48.758;9.150;2023-03-01T07:07:03;23.27;;;14.32;;
45354;SDS011;31091;48.758;9.150;2023-03-01T07:09:29;24.45;;;14.73;;
45354;SDS011;31091;48.758;9.150;2023-03-01T07:11:54;27.08;;;16.05;;
45354;SDS011;31091;48.758;9.150;2023-03-01T07:14:19;26.83;;;14.45;;
45354;SDS011;31091;48.758;9.150;2023-03-01T07:16:45;29.23;;;15.40;;
45354;SDS011;31091;48.758;9.150;2023-03-01T07:19:10;25.48;;;14.00;;
45354;SDS011;31091;48.758;9.150;2023-03-01T07:21:36;24.27;;;14.50;;
45354;SDS011;31091;48.758;9.150;2023-03-01T07:24:03;28.42;;;16.23;;
45354;SDS011;31091;48.758;9.150;2023-03-01T07:26:28;24.48;;;14.35;;
45354;SDS011;31091;48.758;9.150;2023-03-01T07:28:54;26.40;;;14.60;;
45354;SDS011;31091;48.758;9.150;2023-03-01T07:31:19;24.37;;;13.60;;
45354;SDS011;31091;48.758;9.150;2023-03-01T07:33:44;23.47;;;13.23;;
45354;SDS011;31091;48.758;9.150;2023-03-01T07:36:09;25.73;;;14.80;;
45354;SDS011;31091;48.758;9.150;2023-03-01T07:38:34;21.33;;;13.80;;
45354;SDS011;31091;48.758;9.150;2023-03-01T07:41:00;26.27;;;15.00;;
45354;SDS011;31091;48.758;9.150;2023-03-01T07:43:26;27.55;;;15.23;;
45354;SDS011;31091;48.758;9.150;2023-03-01T07:45:51;23.15;;;14.43;;
45354;SDS011;31091;48.758;9.150;2023-03-01T07:48:16;20.83;;;13.57;;
45354;SDS011;31091;48.758;9.150;2023-03-01T07:50:42;24.83;;;15.15;;
45354;SDS011;31091;48.758;9.150;2023-03-01T07:53:07;28.67;;;16.63;;
45354;SDS011;31091;48.758;9.150;2023-03-01T07:55:33;24.55;;;15.38;;
45354;SDS011;31091;48.758;9.150;2023-03-01T07:57:58;22.03;;;13.07;;
45354;SDS011;31091;48.758;9.150;2023-03-01T08:00:23;30.30;;;14.35;;
45354;SDS011;31091;48.758;9.150;2023-03-01T08:02:48;25.33;;;13.93;;
45354;SDS011;31091;48.758;9.150;2023-03-01T08:05:14;25.15;;;14.82;;
45354;SDS011;31091;48.758;9.150;2023-03-01T08:07:39;26.80;;;16.08;;
45354;SDS011;31091;48.758;9.150;2023-03-01T08:10:04;26.20;;;15.68;;
45354;SDS011;31091;48.758;9.150;2023-03-01T08:12:30;25.40;;;15.52;;
45354;SDS011;31091;48.758;9.150;2023-03-01T08:14:55;22.93;;;15.37;;
45354;SDS011;31091;48.758;9.150;2023-03-01T08:17:20;25.55;;;14.68;;
45354;SDS011;31091;48.758;9.150;2023-03-01T08:19:45;27.55;;;15.27;;
45354;SDS011;31091;48.758;9.150;2023-03-01T08:22:11;24.27;;;15.00;;
45354;SDS011;31091;48.758;9.150;2023-03-01T08:24:36;26.30;;;15.57;;
45354;SDS011;31091;48.758;9.150;2023-03-01T08:27:01;30.50;;;15.77;;
45354;SDS011;31091;48.758;9.150;2023-03-01T08:29:27;22.73;;;14.70;;
45354;SDS011;31091;48.758;9.150;2023-03-01T08:31:53;26.35;;;15.68;;
45354;SDS011;31091;48.758;9.150;2023-03-01T08:34:18;26.50;;;14.93;;
45354;SDS011;31091;48.758;9.150;2023-03-01T08:36:44;23.40;;;15.30;;
45354;SDS011;31091;48.758;9.150;2023-03-01T08:39:10;29.00;;;16.50;;
45354;SDS011;31091;48.758;9.150;2023-03-01T08:41:36;26.80;;;16.30;;
45354;SDS011;31091;48.758;9.150;2023-03-01T08:44:02;24.50;;;15.38;;
45354;SDS011;31091;48.758;9.150;2023-03-01T08:46:28;31.25;;;15.43;;
45354;SDS011;31091;48.758;9.150;2023-03-01T08:48:53;23.55;;;15.65;;
45354;SDS011;31091;48.758;9.150;2023-03-01T08:51:19;26.50;;;15.63;;
45354;SDS011;31091;48.758;9.150;2023-03-01T08:53:45;24.08;;;15.15;;
45354;SDS011;31091;48.758;9.150;2023-03-01T08:56:10;26.98;;;15.77;;
45354;SDS011;31091;48.758;9.150;2023-03-01T08:58:36;23.17;;;15.90;;
45354;SDS011;31091;48.758;9.150;2023-03-01T09:01:06;24.90;;;14.13;;
45354;SDS011;31091;48.758;9.150;2023-03-01T09:03:31;23.40;;;15.52;;
45354;SDS011;31091;48.758;9.150;2023-03-01T09:05:59;25.07;;;15.37;;
45354;SDS011;31091;48.758;9.150;2023-03-01T09:08:25;25.10;;;15.05;;
45354;SDS011;31091;48.758;9.150;2023-03-01T09:10:50;22.65;;;14.77;;
45354;SDS011;31091;48.758;9.150;2023-03-01T09:13:15;20.65;;;14.50;;
45354;SDS011;31091;48.758;9.150;2023-03-01T09:15:40;24.93;;;16.00;;
45354;SDS011;31091;48.758;9.150;2023-03-01T09:18:06;23.37;;;15.47;;
45354;SDS011;31091;48.758;9.150;2023-03-01T09:20:31;21.27;;;13.65;;
45354;SDS011;31091;48.758;9.150;2023-03-01T09:22:57;23.13;;;14.63;;
45354;SDS011;31091;48.758;9.150;2023-03-01T09:25:22;23.10;;;15.40;;
45354;SDS011;31091;48.758;9.150;2023-03-01T09:27:49;20.48;;;14.02;;
45354;SDS011;31091;48.758;9.150;2023-03-01T09:30:15;23.08;;;14.70;;
45354;SDS011;31091;48.758;9.150;2023-03-01T09:32:40;22.52;;;14.02;;
45354;SDS011;31091;48.758;9.150;2023-03-01T09:35:07;21.40;;;14.65;;
45354;SDS011;31091;48.758;9.150;2023-03-01T09:37:33;22.85;;;14.68;;
45354;SDS011;31091;48.758;9.150;2023-03-01T09:39:59;23.35;;;15.60;;
45354;SDS011;31091;48.758;9.150;2023-03-01T09:42:24;24.40;;;15.65;;
45354;SDS011;31091;48.758;9.150;2023-03-01T09:44:51;20.83;;;14.25;;
45354;SDS011;31091;48.758;9.150;2023-03-01T09:49:42;22.43;;;14.43;;
45354;SDS011;31091;48.758;9.150;2023-03-01T09:54:44;26.38;;;15.20;;
45354;SDS011;31091;48.758;9.150;2023-03-01T09:59:59;21.65;;;14.88;;
45354;SDS011;31091;48.758;9.150;2023-03-01T10:02:32;20.25;;;14.85;;
45354;SDS011;31091;48.758;9.150;2023-03-01T10:05:03;24.10;;;15.88;;
45354;SDS011;31091;48.758;9.150;2023-03-01T10:07:39;22.40;;;14.40;;
45354;SDS011;31091;48.758;9.150;2023-03-01T10:10:07;21.48;;;15.30;;
45354;SDS011;31091;48.758;9.150;2023-03-01T10:12:35;26.25;;;13.95;;
45354;SDS011;31091;48.758;9.150;2023-03-01T10:15:11;21.15;;;14.50;;
45354;SDS011;31091;48.758;9.150;2023-03-01T10:17:47;22.73;;;13.40;;
45354;SDS011;31091;48.758;9.150;2023-03-01T10:20:18;18.55;;;13.15;;
45354;SDS011;31091;48.758;9.150;2023-03-01T10:22:43;21.92;;;14.57;;
45354;SDS011;31091;48.758;9.150;2023-03-01T10:25:15;22.75;;;13.68;;
45354;SDS011;31091;48.758;9.150;2023-03-01T10:27:46;20.10;;;13.50;;
45354;SDS011;31091;48.758;9.150;2023-03-01T10:30:21;21.38;;;13.75;;
45354;SDS011;31091;48.758;9.150;2023-03-01T10:32:47;20.10;;;14.00;;
45354;SDS011;31091;48.758;9.150;2023-03-01T10:37:56;21.13;;;14.25;;
45354;SDS011;31091;48.758;9.150;2023-03-01T10:40:21;19.90;;;13.65;;
45354;SDS011;31091;48.758;9.150;2023-03-01T10:42:47;21.05;;;13.80;;
45354;SDS011;31091;48.758;9.150;2023-03-01T10:45:26;19.30;;;13.63;;
45354;SDS011;31091;48.758;9.150;2023-03-01T10:50:40;19.70;;;14.10;;
45354;SDS011;31091;48.758;9.150;2023-03-01T10:53:10;19.52;;;13.45;;
45354;SDS011;31091;48.758;9.150;2023-03-01T10:55:41;19.38;;;13.30;;
45354;SDS011;31091;48.758;9.150;2023-03-01T10:58:08;18.63;;;14.05;;
45354;SDS011;31091;48.758;9.150;2023-03-01T11:00:33;18.08;;;12.48;;
45354;SDS011;31091;48.758;9.150;2023-03-01T11:03:11;18.55;;;13.60;;
45354;SDS011;31091;48.758;9.150;2023-03-01T11:05:44;17.15;;;12.73;;
45354;SDS011;31091;48.758;9.150;2023-03-01T11:08:14;19.02;;;13.43;;
45354;SDS011;31091;48.758;9.150;2023-03-01T11:10:40;19.63;;;13.95;;
45354;SDS011;31091;48.758;9.150;2023-03-01T11:13:17;20.30;;;13.37;;
45354;SDS011;31091;48.758;9.150;2023-03-01T11:15:57;19.08;;;12.73;;
45354;SDS011;31091;48.758;9.150;2023-03-01T11:18:23;19.02;;;13.35;;
45354;SDS011;31091;48.758;9.150;2023-03-01T11:20:48;19.73;;;14.27;;
45354;SDS011;31091;48.758;9.150;2023-03-01T11:23:17;18.08;;;12.70;;
45354;SDS011;31091;48.758;9.150;2023-03-01T11:25:43;18.80;;;12.95;;
45354;SDS011;31091;48.758;9.150;2023-03-01T11:28:13;18.23;;;12.52;;
45354;SDS011;31091;48.758;9.150;2023-03-01T11:33:17;22.10;;;12.85;;
45354;SDS011;31091;48.758;9.150;2023-03-01T11:35:57;18.35;;;13.30;;
45354;SDS011;31091;48.758;9.150;2023-03-01T11:38:25;22.45;;;14.45;;
45354;SDS011;31091;48.758;9.150;2023-03-01T11:40:52;21.67;;;13.98;;
45354;SDS011;31091;48.758;9.150;2023-03-01T11:43:33;17.25;;;12.90;;
45354;SDS011;31091;48.758;9.150;2023-03-01T11:46:12;18.27;;;13.43;;
45354;SDS011;31091;48.758;9.150;2023-03-01T11:51:17;17.77;;;12.07;;
45354;SDS011;31091;48.758;9.150;2023-03-01T11:53:50;23.20;;;13.60;;
45354;SDS011;31091;48.758;9.150;2023-03-01T12:01:28;22.38;;;13.93;;
45354;SDS011;31091;48.758;9.150;2023-03-01T12:11:53;23.60;;;12.98;;
45354;SDS011;31091;48.758;9.150;2023-03-01T12:14:40;20.17;;;13.98;;
45354;SDS011;31091;48.758;9.150;2023-03-01T12:22:49;19.00;;;13.15;;
45354;SDS011;31091;48.758;9.150;2023-03-01T12:33:17;19.00;;;13.35;;
45354;SDS011;31091;48.758;9.150;2023-03-01T12:38:49;18.13;;;11.77;;
45354;SDS011;31091;48.758;9.150;2023-03-01T12:41:24;21.15;;;13.18;;
45354;SDS011;31091;48.758;9.150;2023-03-01T12:46:40;18.92;;;12.27;;
45354;SDS011;31091;48.758;9.150;2023-03-01T12:51:35;17.48;;;12.45;;
45354;SDS011;31091;48.758;9.150;2023-03-01T12:54:05;18.95;;;12.60;;
45354;SDS011;31091;48.758;9.150;2023-03-01T12:56:31;18.42;;;11.80;;
45354;SDS011;31091;48.758;9.150;2023-03-01T13:06:50;17.47;;;11.43;;
45354;SDS011;31091;48.758;9.150;2023-03-01T13:12:04;21.52;;;12.10;;
45354;SDS011;31091;48.758;9.150;2023-03-01T13:14:49;16.85;;;11.30;;
45354;SDS011;31091;48.758;9.150;2023-03-01T13:17:31;18.35;;;11.38;;
45354;SDS011;31091;48.758;9.150;2023-03-01T13:19:57;18.10;;;11.80;;
45354;SDS011;31091;48.758;9.150;2023-03-01T13:22:27;17.60;;;11.27;;
45354;SDS011;31091;48.758;9.150;2023-03-01T13:25:00;17.95;;;12.70;;
45354;SDS011;31091;48.758;9.150;2023-03-01T13:27:26;20.45;;;11.52;;
45354;SDS011;31091;48.758;9.150;2023-03-01T13:29:57;17.63;;;12.02;;
45354;SDS011;31091;48.758;9.150;2023-03-01T13:32:31;19.17;;;11.02;;
45354;SDS011;31091;48.758;9.150;2023-03-01T13:37:31;16.00;;;10.65;;
45354;SDS011;31091;48.758;9.150;2023-03-01T13:39:57;18.15;;;11.68;;
45354;SDS011;31091;48.758;9.150;2023-03-01T13:45:02;17.48;;;11.40;;
45354;SDS011;31091;48.758;9.150;2023-03-01T13:47:28;17.67;;;12.35;;
45354;SDS011;31091;48.758;9.150;2023-03-01T13:49:56;21.33;;;14.02;;
45354;SDS011;31091;48.758;9.150;2023-03-01T13:55:17;20.60;;;11.40;;
45354;SDS011;31091;48.758;9.150;2023-03-01T13:57:47;22.63;;;12.68;;
45354;SDS011;31091;48.758;9.150;2023-03-01T14:02:38;20.45;;;11.48;;
45354;SDS011;31091;48.758;9.150;2023-03-01T14:05:03;17.63;;;12.43;;
45354;SDS011;31091;48.758;9.150;2023-03-01T14:07:28;19.80;;;13.30;;
45354;SDS011;31091;48.758;9.150;2023-03-01T14:09:56;19.70;;;13.18;;
45354;SDS011;31091;48.758;9.150;2023-03-01T14:19:45;21.20;;;13.23;;
45354;SDS011;31091;48.758;9.150;2023-03-01T14:24:40;24.92;;;15.23;;
45354;SDS011;31091;48.758;9.150;2023-03-01T14:27:11;22.67;;;14.85;;
45354;SDS011;31091;48.758;9.150;2023-03-01T14:29:37;21.58;;;14.40;;
45354;SDS011;31091;48.758;9.150;2023-03-01T14:32:20;24.77;;;14.75;;
45354;SDS011;31091;48.758;9.150;2023-03-01T14:34:46;22.48;;;14.02;;
45354;SDS011;31091;48.758;9.150;2023-03-01T14:37:19;23.05;;;13.63;;
45354;SDS011;31091;48.758;9.150;2023-03-01T14:39:45;21.98;;;13.93;;
45354;SDS011;31091;48.758;9.150;2023-03-01T14:42:11;22.38;;;14.60;;
45354;SDS011;31091;48.758;9.150;2023-03-01T14:44:38;22.95;;;13.27;;
45354;SDS011;31091;48.758;9.150;2023-03-01T14:47:03;19.58;;;13.70;;
45354;SDS011;31091;48.758;9.150;2023-03-01T14:49:29;24.30;;;14.68;;
45354;SDS011;31091;48.758;9.150;2023-03-01T14:51:59;20.55;;;13.32;;
45354;SDS011;31091;48.758;9.150;2023-03-01T14:54:28;20.77;;;14.30;;
45354;SDS011;31091;48.758;9.150;2023-03-01T14:56:57;21.30;;;13.90;;
45354;SDS011;31091;48.758;9.150;2023-03-01T14:59:23;23.00;;;15.13;;
45354;SDS011;31091;48.758;9.150;2023-03-01T15:01:49;21.88;;;14.68;;
45354;SDS011;31091;48.758;9.150;2023-03-01T15:04:14;24.15;;;15.27;;
45354;SDS011;31091;48.758;9.150;2023-03-01T15:06:40;20.80;;;13.43;;
45354;SDS011;31091;48.758;9.150;2023-03-01T15:09:06;23.00;;;14.15;;
45354;SDS011;31091;48.758;9.150;2023-03-01T15:11:32;21.85;;;13.90;;
45354;SDS011;31091;48.758;9.150;2023-03-01T15:13:58;20.30;;;13.02;;
45354;SDS011;31091;48.758;9.150;2023-03-01T15:16:24;22.25;;;13.23;;
45354;SDS011;31091;48.758;9.150;2023-03-01T15:19:15;21.70;;;13.50;;
45354;SDS011;31091;48.758;9.150;2023-03-01T15:21:39;24.13;;;14.05;;
45354;SDS011;31091;48.758;9.150;2023-03-01T15:24:07;21.38;;;14.05;;
45354;SDS011;31091;48.758;9.150;2023-03-01T15:26:43;26.80;;;14.25;;
45354;SDS011;31091;48.758;9.150;2023-03-01T15:29:15;22.13;;;14.43;;
45354;SDS011;31091;48.758;9.150;2023-03-01T15:31:42;22.75;;;14.18;;
45354;SDS011;31091;48.758;9.150;2023-03-01T15:34:08;21.88;;;15.18;;
45354;SDS011;31091;48.758;9.150;2023-03-01T15:39:03;23.20;;;14.68;;
45354;SDS011;31091;48.758;9.150;2023-03-01T15:41:32;22.23;;;14.40;;
45354;SDS011;31091;48.758;9.150;2023-03-01T15:44:24;21.80;;;14.43;;
45354;SDS011;31091;48.758;9.150;2023-03-01T15:46:49;21.30;;;13.50;;
45354;SDS011;31091;48.758;9.150;2023-03-01T15:49:26;21.40;;;14.23;;
45354;SDS011;31091;48.758;9.150;2023-03-01T15:51:52;22.45;;;14.00;;
45354;SDS011;31091;48.758;9.150;2023-03-01T15:54:20;22.70;;;14.77;;
45354;SDS011;31091;48.758;9.150;2023-03-01T15:56:46;24.23;;;15.00;;